Terminal Aerodrome Forecast
Issued by NWS Wilmington, OH

Home | Current Version | Previous Version | Text Only | Print | Product List | Glossary On
Versions: 1 2 3 4 5 6 7 8 9 10 11 12 13 14 15 16 17 18 19
008
FTUS41 KILN 222340
TAFILN
TAF
KILN 222340Z 2300/2324 27007KT P6SM SCT050
     FM230500 33004KT P6SM SKC
     FM231500 31009KT P6SM SCT045=

USA.gov is the U.S. government's official web portal to all federal, state and local government web resources and services.